Main page
METAR-TAF:

METAR-TAF

Airports :

Begumpet Airport

Hyderabad, India

latitude: 17-27N, longitude: 078-28E, elevation: 530 m

Current weather observation

The report was made 30 minutes ago, at 14:00 UTC
Wind 8 kt from the West
Temperature 28°C
Humidity 74%
Pressure 1008 hPa
Visibility: 5000 m
Scattered clouds at a height of 1000 ft
Scattered clouds at a height of 1500 ft
Overcast at a height of 8000 ft
haze

METAR: VOHY 221400Z 28008KT 5000 HZ SCT010 SCT015 OVC080 28/23 Q1008 NOSIG

Time: 20:00 (14:30 UTC)


TAF: missing

Weather observations and forecasts of more than 4000 airports (METAR and TAF reports).

The available stations are represented by yellow and red dots on the map.

Hover mouse over dot to see the name of the station.

Then click to see weather observations and forecasts.

To change the map : click on the green buttons with a black cross to zoom in, on the green button with a dash to zoom out, or on the green arrows for adjacent maps.


METAR-TAF: